Latest Weather Observations for Combienbar

IDV60801

Issued at 4:05 pm EST Sunday 21 September 2014 (issued every 30 minutes, with the page automatically refreshed every 10 minutes)

About weather observations | Map of weather stations | Latest weather observations for VIC | Other Formats
Station Details ID: 084143 Name: COMBIENBAR AWS Lat: -37.34 Lon: 149.02 Height: 640.0 m
Data from the previous 72 hours. | See also: Recent months at Combienbar
Date/Time
EST
Temp
°C
App
Temp
°C
Dew
Point
Rel
Hum
%
Delta-T
°C
Wind Press
QNH
hPa
Press
MSL
hPa
Rain
since 9 am
mm
Dir
 
Spd
km/h
Gust
km/h
Spd
kts
Gust
kts
21/04:00pm 13.5 12.9 7.3 66 3.1 SSW 0 0 0 0 1028.8 1028.6 0.0
21/03:30pm 13.5 12.8 6.8 64 3.3 SSW 0 2 0 1 1028.6 1028.4 0.0
21/03:00pm 12.9 12.1 6.7 66 3.1 CALM 0 4 0 2 1028.7 1028.5 0.0
21/02:30pm 13.9 12.6 6.0 59 3.9 SSW 2 6 1 3 1028.8 1028.6 0.0
21/02:00pm 13.5 12.1 5.7 59 3.8 SSW 2 6 1 3 1028.9 1028.7 0.0
21/01:30pm 13.8 12.6 6.4 61 3.7 SSW 2 6 1 3 1029.1 1028.9 0.0
21/01:00pm 13.2 11.8 5.4 59 3.8 SSW 2 6 1 3 1029.1 1028.9 0.0
21/12:30pm 12.9 11.5 5.6 61 3.5 SW 2 4 1 2 1029.4 1029.3 0.0
21/12:00pm 11.9 10.4 4.9 62 3.3 SSW 2 4 1 2 1029.7 1029.5 0.0
21/11:30am 11.5 10.0 4.9 64 3.1 SSW 2 7 1 4 1029.9 1029.7 0.0
21/11:00am 11.4 10.3 5.1 65 3.0 CALM 0 4 0 2 1030.1 1029.9 0.0
21/10:30am 10.8 9.6 4.5 65 2.9 CALM 0 4 0 2 1030.1 1029.9 0.0
21/10:00am 10.0 8.2 3.7 65 2.8 SW 2 7 1 4 1030.3 1030.1 0.0
21/09:30am 9.2 7.4 3.6 68 2.5 SW 2 7 1 4 1030.3 1030.1 0.0
21/09:00am 9.3 8.0 3.9 69 2.4 CALM 0 0 0 0 1030.5 1030.3 0.0
21/08:30am 8.9 7.7 4.5 74 2.0 N 0 6 0 3 1030.5 1030.3 0.0
21/08:00am 7.3 5.9 3.7 78 1.6 CALM 0 4 0 2 1030.2 1030.0 0.0
21/07:30am 6.7 5.4 4.2 84 1.1 CALM 0 4 0 2 1030.0 1029.8 0.0
21/07:00am 5.7 3.9 3.7 87 0.9 SSW 2 4 1 2 1029.8 1029.6 0.0
21/06:30am 5.7 4.4 3.9 88 0.8 CALM 0 4 0 2 1029.6 1029.4 0.0
21/06:00am 5.3 3.7 4.3 93 0.4 SW 2 6 1 3 1029.3 1029.2 0.0
21/05:30am 5.2 3.1 4.0 92 0.5 SSW 4 7 2 4 1028.9 1028.7 0.0
21/05:00am 5.1 3.5 4.4 95 0.3 SW 2 6 1 3 1028.3 1028.1 0.0
21/04:30am 5.0 3.8 4.4 96 0.3 CALM 0 2 0 1 1027.9 1027.6 0.0
21/04:00am 4.8 3.5 4.2 96 0.3 CALM 0 0 0 0 1027.7 1027.5 0.0
21/03:30am 4.9 3.6 4.3 96 0.3 CALM 0 0 0 0 1027.6 1027.4 0.0
21/03:00am 4.7 3.4 4.1 96 0.3 CALM 0 0 0 0 1027.4 1027.2 0.0
21/02:30am 5.2 4.0 4.6 96 0.3 CALM 0 0 0 0 1027.4 1027.2 0.0
21/02:00am 5.2 4.0 4.5 95 0.3 CALM 0 0 0 0 1027.9 1027.6 0.0
21/01:30am 5.8 4.7 5.1 95 0.3 CALM 0 0 0 0 1028.3 1028.1 0.0
21/01:00am 5.9 4.8 5.0 94 0.4 CALM 0 0 0 0 1028.4 1028.2 0.0
21/12:30am 5.7 4.5 4.5 92 0.5 CALM 0 0 0 0 1028.4 1028.2 0.0
21/12:00am 6.0 4.4 4.3 89 0.8 SW 2 4 1 2 1028.4 1028.2 0.0
 
Date/Time
EST
Temp
°C
App
Temp
°C
Dew
Point
Rel
Hum
%
Delta-T
°C
Wind Press
QNH
hPa
Press
MSL
hPa
Rain
since 9 am
mm
Dir
 
Spd
km/h
Gust
km/h
Spd
kts
Gust
kts
20/11:30pm 6.7 5.2 5.0 89 0.8 SW 2 6 1 3 1028.5 1028.3 0.0
20/11:00pm 6.8 4.9 5.1 89 0.8 SW 4 9 2 5 1028.8 1028.6 0.0
20/10:30pm 6.7 5.7 5.8 94 0.4 CALM 0 0 0 0 1028.8 1028.6 0.0
20/10:00pm 6.6 5.6 5.7 94 0.4 CALM 0 4 0 2 1028.8 1028.6 0.0
20/09:30pm 6.8 5.8 5.7 93 0.5 CALM 0 2 0 1 1028.9 1028.7 0.0
20/09:00pm 6.8 5.8 5.6 92 0.6 CALM 0 2 0 1 1028.9 1028.7 0.0
20/08:30pm 6.7 5.6 5.3 91 0.6 CALM 0 0 0 0 1028.6 1028.4 0.0
20/08:00pm 7.2 6.2 5.7 90 0.7 CALM 0 0 0 0 1028.4 1028.2 0.0
20/07:30pm 7.2 6.2 5.8 91 0.7 CALM 0 2 0 1 1028.1 1027.9 0.0
20/07:00pm 6.7 5.6 5.0 89 0.8 CALM 0 2 0 1 1027.7 1027.5 0.0
20/06:30pm 7.2 6.2 5.5 89 0.8 CALM 0 2 0 1 1027.3 1027.1 0.0
20/06:00pm 7.7 5.9 5.2 84 1.1 SSW 4 6 2 3 1026.9 1026.7 0.0
20/05:30pm 8.1 6.3 5.2 82 1.3 SW 4 7 2 4 1026.6 1026.3 0.0
20/05:00pm 8.9 7.2 5.8 81 1.5 SSW 4 9 2 5 1026.2 1025.9 0.0
20/04:30pm 9.2 7.5 5.8 79 1.6 SSW 4 7 2 4 1025.8 1025.6 0.0
20/04:00pm 9.9 8.7 6.3 78 1.7 SW 2 6 1 3 1025.6 1025.4 0.0
20/03:30pm 11.2 10.0 6.3 72 2.4 SSW 2 7 1 4 1025.3 1025.1 0.0
20/03:00pm 11.4 9.6 5.3 66 2.9 SW 4 11 2 6 1025.2 1024.9 0.0
20/02:30pm 10.4 8.6 5.2 70 2.5 SW 4 11 2 6 1025.1 1024.8 0.0
20/02:00pm 11.1 8.7 4.1 62 3.2 SW 6 13 3 7 1025.0 1024.7 0.0
20/01:30pm 11.5 10.2 6.2 70 2.6 SW 2 7 1 4 1025.1 1024.8 0.0
20/01:00pm 11.0 9.6 5.3 68 2.7 SW 2 7 1 4 1025.2 1024.9 0.0
20/12:30pm 11.2 8.9 4.9 65 3.0 SW 6 11 3 6 1025.3 1025.1 0.0
20/12:00pm 10.7 9.4 6.1 73 2.2 SW 2 7 1 4 1025.5 1025.3 0.0
20/11:30am 9.1 6.9 5.3 77 1.8 SW 6 15 3 8 1025.7 1025.5 0.0
20/11:00am 9.6 7.8 5.6 76 1.9 SW 4 9 2 5 1025.7 1025.5 0.0
20/10:30am 9.1 6.7 4.5 73 2.1 SW 6 11 3 6 1025.6 1025.4 0.0
20/10:00am 9.0 6.4 4.4 73 2.1 SW 7 13 4 7 1025.6 1025.4 0.0
20/09:30am 8.6 6.2 4.2 74 2.0 SW 6 13 3 7 1025.6 1025.4 0.0
20/09:00am 8.0 5.0 4.0 76 1.8 SW 9 19 5 10 1025.3 1025.1 0.0
20/08:30am 7.3 4.3 3.9 79 1.5 SW 9 15 5 8 1025.0 1024.7 0.0
20/08:00am 6.9 4.2 3.7 80 1.4 SW 7 13 4 7 1024.8 1024.5 0.0
20/07:30am 6.6 3.5 3.4 80 1.4 SW 9 15 5 8 1024.4 1024.2 0.0
20/07:00am 6.4 3.2 3.2 80 1.4 SW 9 17 5 9 1024.1 1023.9 0.0
20/06:30am 6.2 3.0 3.2 81 1.3 SW 9 17 5 9 1023.8 1023.5 0.0
20/06:00am 6.3 3.0 2.6 77 1.6 SW 9 17 5 9 1023.5 1023.2 0.0
20/05:30am 6.2 3.4 2.3 76 1.7 SW 6 17 3 9 1023.3 1023.0 0.0
20/05:00am 6.1 3.4 2.6 78 1.5 SSW 6 9 3 5 1023.0 1022.7 0.0
20/04:30am 6.1 3.4 2.4 77 1.6 SW 6 9 3 5 1022.7 1022.5 0.0
20/04:00am 6.2 3.2 2.3 76 1.7 SSW 7 15 4 8 1022.5 1022.2 0.0
20/03:30am 6.1 3.4 2.6 78 1.5 SW 6 13 3 7 1022.3 1022.0 0.0
20/03:00am 6.2 3.3 2.7 78 1.5 SW 7 15 4 8 1022.3 1022.0 0.0
20/02:30am 6.1 3.4 2.7 79 1.5 SW 6 13 3 7 1022.2 1021.9 0.0
20/02:00am 6.0 3.7 2.8 80 1.4 SSW 4 7 2 4 1022.2 1021.9 0.0
20/01:30am 6.1 3.4 2.6 78 1.5 SSW 6 17 3 9 1022.2 1021.9 0.0
20/01:00am 5.7 3.0 2.5 80 1.4 SSW 6 9 3 5 1022.2 1021.9 0.0
20/12:30am 5.7 3.3 2.4 79 1.4 SSW 4 11 2 6 1022.1 1021.8 0.0
20/12:00am 6.0 3.7 2.5 78 1.5 SW 4 9 2 5 1021.9 1021.6 0.0
 
Date/Time
EST
Temp
°C
App
Temp
°C
Dew
Point
Rel
Hum
%
Delta-T
°C
Wind Press
QNH
hPa
Press
MSL
hPa
Rain
since 9 am
mm
Dir
 
Spd
km/h
Gust
km/h
Spd
kts
Gust
kts
19/11:30pm 6.1 3.4 2.6 78 1.5 SW 6 9 3 5 1021.8 1021.5 0.0
19/11:00pm 6.4 3.8 3.0 79 1.5 SW 6 11 3 6 1022.1 1021.8 0.0
19/10:30pm 6.5 3.7 3.1 79 1.5 SW 7 13 4 7 1022.1 1021.8 0.0
19/10:00pm 6.9 4.3 3.3 78 1.6 SW 6 11 3 6 1022.1 1021.8 0.0
19/09:30pm 7.4 4.7 3.6 77 1.7 SSW 7 13 4 7 1022.2 1021.9 0.0
19/09:00pm 7.6 5.1 4.0 78 1.6 SW 6 13 3 7 1022.1 1021.8 0.0
19/08:30pm 7.7 5.1 4.1 78 1.6 SW 7 17 4 9 1022.0 1021.7 0.0
19/08:00pm 7.6 5.1 4.6 81 1.4 SW 7 13 4 7 1021.6 1021.3 0.0
19/07:30pm 7.5 5.2 5.0 84 1.1 SW 6 11 3 6 1021.6 1021.3 0.0
19/07:00pm 7.4 5.6 5.4 87 0.9 SW 4 7 2 4 1021.5 1021.2 0.0
19/06:30pm 7.6 5.7 5.1 84 1.2 SW 4 11 2 6 1021.2 1020.8 0.0
19/06:00pm 7.7 5.8 4.8 82 1.3 SW 4 6 2 3 1020.8 1020.5 0.0
19/05:30pm 8.5 6.7 5.4 81 1.4 SSW 4 9 2 5 1020.6 1020.3 0.0
19/05:00pm 9.1 6.7 4.5 73 2.1 SW 6 9 3 5 1020.3 1020.0 0.0
19/04:30pm 9.9 7.5 4.5 69 2.5 SSW 6 13 3 7 1020.1 1019.8 0.0
19/04:00pm 10.3 8.0 4.9 69 2.5 SW 6 11 3 6 1019.9 1019.5 0.0
19/03:30pm 10.6 8.0 4.1 64 3.0 SW 7 17 4 9 1019.9 1019.5 0.0
19/03:00pm 10.7 8.4 4.6 66 2.8 SW 6 13 3 7 1020.0 1019.7 0.0
19/02:30pm 11.0 8.5 4.9 66 2.9 SW 7 19 4 10 1020.1 1019.8 0.0
19/02:00pm 10.4 7.6 3.4 62 3.2 SW 7 19 4 10 1020.1 1019.8 0.0
19/01:30pm 9.3 7.2 4.1 70 2.4 SW 4 11 2 6 1020.5 1020.2 0.0
19/01:00pm 10.6 8.1 4.5 66 2.8 SW 7 15 4 8 1020.5 1020.2 0.0
19/12:30pm 10.3 7.8 3.8 64 3.0 SW 6 19 3 10 1020.9 1020.6 0.0
19/12:00pm 9.8 7.6 3.3 64 2.9 SW 4 13 2 7 1021.0 1020.7 0.0
19/11:30am 9.6 7.1 3.6 66 2.7 SW 6 15 3 8 1021.3 1021.0 0.0
19/11:00am 9.4 6.9 4.0 69 2.5 SW 6 15 3 8 1021.4 1021.1 0.0
19/10:30am 8.8 6.1 3.6 70 2.3 SW 7 19 4 10 1021.5 1021.2 0.0
19/10:00am 7.8 4.7 3.5 74 1.9 SW 9 22 5 12 1021.6 1021.3 0.0
19/09:30am 8.0 5.3 3.5 73 2.0 SW 7 20 4 11 1021.5 1021.2 0.0
19/09:00am 6.9 3.7 3.2 77 1.6 SW 9 15 5 8 1021.5 1021.2 0.2
19/08:30am 6.4 3.1 2.3 75 1.7 SW 9 20 5 11 1021.4 1021.1 0.2
19/08:00am 6.3 2.9 2.0 74 1.8 SW 9 20 5 11 1021.2 1020.8 0.2
19/07:30am 5.7 2.2 1.4 74 1.8 SW 9 17 5 9 1020.7 1020.4 0.2
19/07:00am 5.4 1.9 1.1 74 1.8 SW 9 22 5 12 1020.6 1020.3 0.2
19/06:30am 5.3 1.8 1.1 74 1.7 SW 9 19 5 10 1020.6 1020.3 0.2
19/06:00am 5.1 2.0 0.3 71 1.9 SW 6 19 3 10 1020.4 1020.1 0.2
19/05:30am 4.8 1.7 0.2 72 1.8 SW 6 15 3 8 1020.4 1020.1 0.2
19/05:00am 4.5 1.4 0.3 74 1.7 SW 6 17 3 9 1020.1 1019.8 0.2
19/04:30am 4.7 1.4 0.3 73 1.8 SW 7 17 4 9 1019.8 1019.4 0.2
19/04:00am 4.4 1.1 0.4 75 1.6 SW 7 20 4 11 1020.0 1019.7 0.2
19/03:30am 4.5 2.2 0.3 74 1.7 SW 2 7 1 4 1020.1 1019.8 0.2
19/03:00am 4.7 2.0 0.3 73 1.7 SSW 4 19 2 10 1020.1 1019.8 0.2
19/02:30am 4.9 1.7 0.5 73 1.8 SW 7 17 4 9 1020.1 1019.8 0.2
19/02:00am 4.7 2.1 0.8 76 1.6 SSW 4 9 2 5 1020.5 1020.2 0.2
19/01:30am 4.8 2.1 0.4 73 1.8 SW 4 7 2 4 1020.8 1020.5 0.2
19/01:00am 4.8 1.8 0.8 75 1.6 SW 6 19 3 10 1020.9 1020.6 0.2
19/12:30am 4.8 1.8 0.8 75 1.6 SW 6 15 3 8 1020.9 1020.6 0.2
19/12:00am 5.0 1.9 1.5 78 1.4 SW 7 19 4 10 1021.2 1020.8 0.2
 
Date/Time
EST
Temp
°C
App
Temp
°C
Dew
Point
Rel
Hum
%
Delta-T
°C
Wind Press
QNH
hPa
Press
MSL
hPa
Rain
since 9 am
mm
Dir
 
Spd
km/h
Gust
km/h
Spd
kts
Gust
kts
18/11:30pm 5.1 2.4 2.6 84 1.1 SW 6 15 3 8 1021.0 1020.7 0.2
18/11:00pm 5.3 3.0 2.5 82 1.2 SW 4 7 2 4 1021.2 1020.8 0.2
18/10:30pm 5.4 3.5 2.9 84 1.1 SSW 2 7 1 4 1021.3 1021.0 0.2
18/10:00pm 5.6 3.6 2.4 80 1.4 SSW 2 11 1 6 1021.0 1020.7 0.2
18/09:30pm 5.7 3.3 2.2 78 1.5 SSW 4 13 2 7 1020.9 1020.6 0.2
18/09:00pm 5.5 3.1 2.3 80 1.3 SW 4 11 2 6 1020.9 1020.6 0.2
18/08:30pm 5.3 3.0 2.5 82 1.2 SSW 4 11 2 6 1020.7 1020.4 0.2
18/08:00pm 5.6 3.2 2.1 78 1.5 SW 4 6 2 3 1020.8 1020.5 0.2
18/07:30pm 5.3 3.0 2.5 82 1.2 SSW 4 7 2 4 1020.7 1020.4 0.2
18/07:00pm 5.3 2.5 2.3 81 1.3 SW 6 15 3 8 1020.5 1020.2 0.2
18/06:30pm 5.1 2.4 2.6 84 1.1 SW 6 11 3 6 1020.2 1019.9 0.2
18/06:00pm 5.1 2.9 3.4 89 0.7 SW 4 7 2 4 1020.1 1019.8 0.2
18/05:30pm 5.3 3.1 3.3 87 0.9 SW 4 15 2 8 1019.9 1019.5 0.2
18/05:00pm 5.5 2.9 3.3 86 0.9 SW 6 13 3 7 1019.6 1019.2 0.2
18/04:30pm 6.7 4.5 3.5 80 1.4 SW 4 7 2 4 1019.1 1018.8 0.0

Other Formats:

Comma delimited format used in spreadsheet applications
http://www.bom.gov.au/fwo/IDV60801/IDV60801.94914.axf

JavaScript Object Notation format (JSON) in row-major order
http://www.bom.gov.au/fwo/IDV60801/IDV60801.94914.json